Great Ocean — 3FDA5 — position and weather

sailwx.info

Track history (hours):
 
Tides and Currents Weather Stations Pressure Air Temp Water Temp Dewpoint Dewpoint Depression Visibility Wind Speed Wind Dir Waves Ship Positions

Great Ocean

Last reported at 2017-Nov-23 21:07 UTC. Time now 2017-Nov-25 02:13 UTC.
Position N 30°56' E 122°38'.

Length 180 m; draft 7.1 m.

Type: Cargo ship. MMSI: 371452000.

Date/timePositionNaut miles runAvg speedWind from/ knotsBaromVisibWave heightAir tempDewpointWater temp
2017-Nov-23 21:07N 30°56' E 122°38'214.1
2017-Nov-23 20:58N 30°57' E 122°36'714.0
2017-Nov-23 20:30N 30°60' E 122°29'713.9
2017-Nov-23 20:00N 31°01' E 122°21'713.4
2017-Nov-23 19:30N 31°03' E 122°13'611.5
2017-Nov-23 19:00N 31°03' E 122°07'611.8
2017-Nov-23 18:30N 31°05' E 122°00'5 9.9
2017-Nov-23 18:00N 31°08' E 121°55'510.9
2017-Nov-23 17:30N 31°11' E 121°50'611.1
2017-Nov-23 17:00N 31°15' E 121°46'611.4
2017-Nov-23 16:30N 31°19' E 121°42'510.9
2017-Nov-23 16:00N 31°23' E 121°36'611.1
2017-Nov-23 15:30N 31°25' E 121°31'5 9.6
2017-Nov-23 15:00N 31°29' E 121°27'611.3
2017-Nov-23 14:30N 31°32' E 121°21'713.8
2017-Nov-23 14:00N 31°37' E 121°16'714.7
2017-Nov-23 13:30N 31°42' E 121°09'913.0
2017-Nov-23 12:47N 31°47' E 120°60'312.0
2017-Nov-23 12:30N 31°48' E 120°56'  
2017-Nov-16 23:33N 32°00' E 120°22'1 7.5
2017-Nov-16 23:24N 32°01' E 120°24'4 8.1
2017-Nov-16 22:58N 32°02' E 120°27'510.3
2017-Nov-16 22:30N 32°01' E 120°33'27 8.9
2017-Nov-16 19:32N 31°47' E 120°59'110.4
2017-Nov-16 19:25N 31°47' E 121°01'410.9
2017-Nov-16 19:00N 31°45' E 121°06'611.2
2017-Nov-16 18:30N 31°41' E 121°10'611.5
2017-Nov-16 18:00N 31°38' E 121°16'611.7
2017-Nov-16 17:30N 31°33' E 121°20'611.9
2017-Nov-16 17:00N 31°30' E 121°26'510.2
2017-Nov-16 16:30N 31°26' E 121°30'5 9.6
2017-Nov-16 16:00N 31°23' E 121°35'611.2
2017-Nov-16 15:30N 31°21' E 121°40'611.2
2017-Nov-16 15:00N 31°18' E 121°46'5 9.4
2017-Nov-16 14:30N 31°16' E 121°51'612.1
2017-Nov-16 14:00N 31°15' E 121°58'510.8
2017-Nov-16 13:30N 31°14' E 122°04'611.0
2017-Nov-16 13:00N 31°11' E 122°10'612.4
2017-Nov-16 12:30N 31°08' E 122°16'810.8
2017-Nov-16 11:47N 31°06' E 122°25'  
Track history (hours):
 
Tides and Currents Weather Stations Pressure Air Temp Water Temp Dewpoint Dewpoint Depression Visibility Wind Speed Wind Dir Waves Ship Positions

Great Ocean

Last reported at 2017-Nov-23 21:07 UTC. Time now 2017-Nov-25 02:13 UTC.
Position N 30°56' E 122°38'.

Length 180 m; draft 7.1 m.

Type: Cargo ship. MMSI: 371452000.

Date/timePositionNaut miles runAvg speedWind from/ knotsBaromVisibWave heightAir tempDewpointWater temp
2017-Nov-23 21:07N 30°56' E 122°38'214.1
2017-Nov-23 20:58N 30°57' E 122°36'714.0
2017-Nov-23 20:30N 30°60' E 122°29'713.9
2017-Nov-23 20:00N 31°01' E 122°21'713.4
2017-Nov-23 19:30N 31°03' E 122°13'611.5
2017-Nov-23 19:00N 31°03' E 122°07'611.8
2017-Nov-23 18:30N 31°05' E 122°00'5 9.9
2017-Nov-23 18:00N 31°08' E 121°55'510.9
2017-Nov-23 17:30N 31°11' E 121°50'611.1
2017-Nov-23 17:00N 31°15' E 121°46'611.4
2017-Nov-23 16:30N 31°19' E 121°42'510.9
2017-Nov-23 16:00N 31°23' E 121°36'611.1
2017-Nov-23 15:30N 31°25' E 121°31'5 9.6
2017-Nov-23 15:00N 31°29' E 121°27'611.3
2017-Nov-23 14:30N 31°32' E 121°21'713.8
2017-Nov-23 14:00N 31°37' E 121°16'714.7
2017-Nov-23 13:30N 31°42' E 121°09'913.0
2017-Nov-23 12:47N 31°47' E 120°60'312.0
2017-Nov-23 12:30N 31°48' E 120°56'  
2017-Nov-16 23:33N 32°00' E 120°22'1 7.5
2017-Nov-16 23:24N 32°01' E 120°24'4 8.1
2017-Nov-16 22:58N 32°02' E 120°27'510.3
2017-Nov-16 22:30N 32°01' E 120°33'27 8.9
2017-Nov-16 19:32N 31°47' E 120°59'110.4
2017-Nov-16 19:25N 31°47' E 121°01'410.9
2017-Nov-16 19:00N 31°45' E 121°06'611.2
2017-Nov-16 18:30N 31°41' E 121°10'611.5
2017-Nov-16 18:00N 31°38' E 121°16'611.7
2017-Nov-16 17:30N 31°33' E 121°20'611.9
2017-Nov-16 17:00N 31°30' E 121°26'510.2
2017-Nov-16 16:30N 31°26' E 121°30'5 9.6
2017-Nov-16 16:00N 31°23' E 121°35'611.2
2017-Nov-16 15:30N 31°21' E 121°40'611.2
2017-Nov-16 15:00N 31°18' E 121°46'5 9.4
2017-Nov-16 14:30N 31°16' E 121°51'612.1
2017-Nov-16 14:00N 31°15' E 121°58'510.8
2017-Nov-16 13:30N 31°14' E 122°04'611.0
2017-Nov-16 13:00N 31°11' E 122°10'612.4
2017-Nov-16 12:30N 31°08' E 122°16'810.8
2017-Nov-16 11:47N 31°06' E 122°25'  

Dump ship's entire track history